Time;durP1;ratioP1;P1;durP2;ratioP2;P2;SDS_P1;SDS_P2;PMS_P1;PMS_P2;Temp;Humidity;BMP_temperature;BMP_pressure;BME280_temperature;BME280_humidity;BME280_pressure;Samples;Min_cycle;Max_cycle;Signal;HPM_P1;HPM_P2
2022/06/02 00:01:49;;;;;;;5.17;4.63;;;;;;;;;;6006232;29;20262;-75
2022/06/02 00:05:17;;;;;;;4.50;4.20;;;;;;;;;;6008030;29;20749;-74
2022/06/02 00:08:44;;;;;;;4.20;3.90;;;;;;;;;;6008705;29;20237;-75
2022/06/02 00:12:07;;;;;;;4.40;4.10;;;;;;;;;;6006172;29;20624;-74
2022/06/02 00:15:31;;;;;;;4.47;4.17;;;;;;;;;;6007480;29;20238;-75
2022/06/02 00:18:55;;;;;;;4.97;4.47;;;;;;;;;;6008819;29;20226;-74
2022/06/02 00:22:19;;;;;;;4.90;4.50;;;;;;;;;;6009033;29;20415;-75
2022/06/02 00:25:44;;;;;;;4.90;4.60;;;;;;;;;;6004853;29;20243;-74
2022/06/02 00:29:09;;;;;;;5.47;4.20;;;;;;;;;;6003374;29;20238;-75
2022/06/02 00:32:33;;;;;;;5.10;4.70;;;;;;;;;;6011705;29;20244;-74
2022/06/02 00:35:58;;;;;;;5.10;4.60;;;;;;;;;;6004166;29;20258;-74
2022/06/02 00:39:19;;;;;;;4.83;4.47;;;;;;;;;;6005958;29;20520;-74
2022/06/02 00:42:49;;;;;;;5.23;4.73;;;;;;;;;;6004952;29;20238;-75
2022/06/02 00:46:13;;;;;;;5.67;5.17;;;;;;;;;;6010278;29;20949;-75
2022/06/02 00:49:39;;;;;;;5.73;5.07;;;;;;;;;;6006405;29;20896;-75
2022/06/02 00:53:04;;;;;;;5.70;4.60;;;;;;;;;;6006313;29;20247;-75
2022/06/02 01:00:12;;;;;;;5.90;5.40;;;;;;;;;;6011657;29;20237;-75
2022/06/02 01:03:37;;;;;;;6.20;5.60;;;;;;;;;;6008450;29;20226;-74
2022/06/02 01:07:04;;;;;;;5.40;5.00;;;;;;;;;;6011599;29;20275;-74
2022/06/02 01:10:34;;;;;;;6.53;5.50;;;;;;;;;;6010917;29;20503;-74
2022/06/02 01:14:00;;;;;;;6.10;5.60;;;;;;;;;;6011108;29;20309;-74
2022/06/02 01:17:23;;;;;;;6.33;5.83;;;;;;;;;;5995078;29;20240;-74
2022/06/02 01:20:52;;;;;;;6.80;6.10;;;;;;;;;;5987857;29;20231;-74
2022/06/02 01:24:34;;;;;;;6.40;5.90;;;;;;;;;;5991664;29;20235;-75
2022/06/02 01:28:02;;;;;;;7.30;6.43;;;;;;;;;;6004280;29;20238;-73
2022/06/02 01:31:30;;;;;;;8.07;7.33;;;;;;;;;;6012269;29;20231;-74
2022/06/02 01:34:55;;;;;;;6.67;6.17;;;;;;;;;;6010493;29;20238;-75
2022/06/02 01:38:19;;;;;;;7.03;6.53;;;;;;;;;;6005950;29;21853;-74
2022/06/02 01:41:44;;;;;;;7.50;6.83;;;;;;;;;;6009207;29;20243;-74
2022/06/02 01:45:09;;;;;;;7.10;6.53;;;;;;;;;;6007838;29;20617;-74
2022/06/02 01:48:34;;;;;;;7.27;6.33;;;;;;;;;;6008374;29;20329;-75
2022/06/02 01:51:59;;;;;;;6.07;5.57;;;;;;;;;;6010919;29;20337;-74
2022/06/02 01:55:34;;;;;;;7.80;6.47;;;;;;;;;;6006785;29;20258;-74
2022/06/02 01:58:58;;;;;;;6.50;5.90;;;;;;;;;;6011575;29;20239;-75
2022/06/02 02:02:24;;;;;;;6.50;5.87;;;;;;;;;;6006313;29;20559;-73
2022/06/02 02:05:53;;;;;;;10.93;7.17;;;;;;;;;;6008163;29;20666;-74
2022/06/02 02:09:19;;;;;;;7.00;6.40;;;;;;;;;;6005969;29;20234;-74
2022/06/02 02:12:44;;;;;;;5.87;5.37;;;;;;;;;;6003102;29;20238;-74
2022/06/02 02:16:15;;;;;;;6.90;6.40;;;;;;;;;;6006233;29;20238;-74
2022/06/02 02:19:39;;;;;;;6.43;5.43;;;;;;;;;;6011187;29;20378;-73
2022/06/02 02:23:04;;;;;;;6.27;5.67;;;;;;;;;;6007399;29;20317;-74
2022/06/02 02:26:27;;;;;;;6.77;6.23;;;;;;;;;;6008655;29;20689;-74
2022/06/02 02:29:52;;;;;;;6.47;5.90;;;;;;;;;;6011037;29;20243;-75
2022/06/02 02:33:17;;;;;;;5.57;5.07;;;;;;;;;;6008318;29;20616;-74
2022/06/02 02:36:42;;;;;;;6.20;5.70;;;;;;;;;;6005490;29;20231;-75
2022/06/02 02:40:06;;;;;;;5.87;5.30;;;;;;;;;;6013318;29;20243;-74
2022/06/02 02:43:29;;;;;;;5.67;5.23;;;;;;;;;;6010153;29;20234;-75
2022/06/02 02:46:53;;;;;;;5.77;5.37;;;;;;;;;;6008359;29;20995;-74
2022/06/02 02:50:18;;;;;;;5.33;4.83;;;;;;;;;;6008946;29;20243;-74
2022/06/02 02:53:43;;;;;;;5.77;5.37;;;;;;;;;;6008985;29;20266;-73
2022/06/02 02:57:09;;;;;;;7.20;5.97;;;;;;;;;;6008699;29;20234;-73
2022/06/02 03:00:34;;;;;;;5.77;5.27;;;;;;;;;;6005405;29;21711;-74
2022/06/02 03:04:09;;;;;;;6.10;5.50;;;;;;;;;;6007775;29;20230;-75
2022/06/02 03:07:31;;;;;;;6.27;5.87;;;;;;;;;;6009666;29;20238;-73
2022/06/02 03:10:55;;;;;;;15.07;13.77;;;;;;;;;;6006428;29;21480;-74
2022/06/02 03:14:22;;;;;;;6.90;6.27;;;;;;;;;;5985422;29;20341;-73
2022/06/02 03:17:51;;;;;;;8.20;7.17;;;;;;;;;;6009916;29;20235;-74
2022/06/02 03:21:17;;;;;;;6.43;5.83;;;;;;;;;;6009783;29;20265;-75
2022/06/02 03:24:46;;;;;;;7.93;7.13;;;;;;;;;;6004042;29;20226;-74
2022/06/02 03:28:13;;;;;;;7.90;7.30;;;;;;;;;;6010385;29;20246;-75
2022/06/02 03:31:40;;;;;;;8.27;7.40;;;;;;;;;;6005709;29;20235;-74
2022/06/02 03:35:04;;;;;;;7.73;7.10;;;;;;;;;;6006941;29;20226;-74
2022/06/02 03:38:30;;;;;;;8.03;7.43;;;;;;;;;;6011773;29;20247;-75
2022/06/02 03:41:58;;;;;;;12.33;8.47;;;;;;;;;;6011386;29;20621;-74
2022/06/02 03:45:24;;;;;;;10.03;9.13;;;;;;;;;;6004765;29;20257;-74
2022/06/02 03:49:00;;;;;;;9.90;8.90;;;;;;;;;;6005668;29;20231;-74
2022/06/02 03:52:29;;;;;;;8.63;7.93;;;;;;;;;;6005834;29;20285;-74
2022/06/02 03:55:57;;;;;;;9.47;8.57;;;;;;;;;;6010471;29;20231;-74
2022/06/02 03:59:26;;;;;;;9.40;8.50;;;;;;;;;;6009438;29;20462;-75
2022/06/02 04:02:48;;;;;;;9.40;8.57;;;;;;;;;;6006213;29;20597;-74
2022/06/02 04:06:21;;;;;;;10.57;9.57;;;;;;;;;;6006226;29;20238;-75
2022/06/02 04:09:46;;;;;;;11.40;10.50;;;;;;;;;;6011366;29;20246;-74
2022/06/02 04:16:56;;;;;;;11.53;10.43;;;;;;;;;;6007830;29;20326;-73
2022/06/02 04:20:35;;;;;;;12.67;11.50;;;;;;;;;;5998593;29;26452;-75
2022/06/02 04:24:05;;;;;;;12.23;11.03;;;;;;;;;;5998547;29;20284;-73
2022/06/02 04:27:28;;;;;;;11.53;10.30;;;;;;;;;;5993633;29;20239;-73
2022/06/02 04:30:55;;;;;;;11.90;10.83;;;;;;;;;;6005527;29;20605;-74
2022/06/02 04:34:20;;;;;;;10.67;9.43;;;;;;;;;;6001058;29;20262;-75
2022/06/02 04:37:44;;;;;;;11.33;10.43;;;;;;;;;;6005780;29;20852;-75
2022/06/02 04:41:10;;;;;;;11.50;10.30;;;;;;;;;;6005066;29;20234;-75
2022/06/02 04:44:35;;;;;;;12.17;10.97;;;;;;;;;;6003736;29;20712;-74
2022/06/02 04:48:00;;;;;;;11.77;10.57;;;;;;;;;;6004396;29;20238;-74
2022/06/02 04:51:25;;;;;;;11.10;9.87;;;;;;;;;;6002970;29;20234;-74
2022/06/02 04:54:49;;;;;;;9.97;9.00;;;;;;;;;;6004835;29;20235;-73
2022/06/02 04:58:15;;;;;;;11.30;10.40;;;;;;;;;;6006599;29;20637;-73
2022/06/02 05:01:44;;;;;;;10.00;9.10;;;;;;;;;;5999290;29;20267;-75
2022/06/02 05:05:11;;;;;;;9.00;8.20;;;;;;;;;;6005779;29;20238;-75
2022/06/02 05:08:40;;;;;;;12.80;9.30;;;;;;;;;;6004943;29;20250;-75
2022/06/02 05:12:04;;;;;;;9.07;8.37;;;;;;;;;;6002200;29;20238;-74
2022/06/02 05:15:35;;;;;;;10.00;8.97;;;;;;;;;;6008713;29;21018;-75
2022/06/02 05:19:15;;;;;;;10.77;9.67;;;;;;;;;;6002139;29;20595;-74
2022/06/02 05:22:42;;;;;;;9.10;7.80;;;;;;;;;;5999584;29;20227;-74
2022/06/02 05:26:15;;;;;;;8.90;8.13;;;;;;;;;;5994750;29;20235;-74
2022/06/02 05:29:53;;;;;;;8.57;7.87;;;;;;;;;;6002872;29;20621;-73
2022/06/02 05:33:27;;;;;;;9.17;8.20;;;;;;;;;;5975499;29;20633;-74
2022/06/02 05:36:54;;;;;;;9.17;8.33;;;;;;;;;;6000133;29;20285;-75
2022/06/02 05:40:18;;;;;;;9.00;8.10;;;;;;;;;;5986759;29;20235;-74
2022/06/02 05:43:42;;;;;;;7.13;6.53;;;;;;;;;;6004540;29;20631;-75
2022/06/02 05:47:09;;;;;;;8.83;7.90;;;;;;;;;;5979553;29;20329;-74
2022/06/02 05:50:36;;;;;;;7.80;7.20;;;;;;;;;;5999121;29;20234;-74
2022/06/02 05:54:03;;;;;;;8.13;7.53;;;;;;;;;;5980715;29;20254;-73
2022/06/02 05:57:31;;;;;;;9.10;6.27;;;;;;;;;;5997198;29;20610;-74
2022/06/02 06:00:56;;;;;;;6.73;6.13;;;;;;;;;;6015852;29;20238;-73
2022/06/02 06:04:25;;;;;;;8.60;7.47;;;;;;;;;;6011347;29;20816;-72
2022/06/02 06:07:57;;;;;;;7.70;6.67;;;;;;;;;;6008255;29;20242;-73
2022/06/02 06:11:24;;;;;;;7.47;6.70;;;;;;;;;;6004497;29;20367;-73
2022/06/02 06:14:50;;;;;;;6.60;6.00;;;;;;;;;;6020386;29;20250;-73
2022/06/02 06:18:18;;;;;;;7.30;6.60;;;;;;;;;;6009717;29;20240;-72
2022/06/02 06:21:49;;;;;;;7.20;6.60;;;;;;;;;;6010802;29;20281;-72
2022/06/02 06:25:22;;;;;;;7.07;6.37;;;;;;;;;;6009679;29;20234;-72
2022/06/02 06:28:46;;;;;;;6.37;5.80;;;;;;;;;;6008295;29;20253;-72
2022/06/02 06:32:13;;;;;;;6.73;6.13;;;;;;;;;;6010441;29;20254;-73
2022/06/02 06:35:38;;;;;;;7.27;5.60;;;;;;;;;;6008248;29;20258;-74
2022/06/02 06:39:04;;;;;;;6.70;5.27;;;;;;;;;;5987313;29;20234;-73
2022/06/02 06:42:32;;;;;;;6.27;4.77;;;;;;;;;;6005311;29;20238;-73
2022/06/02 06:45:57;;;;;;;5.50;5.00;;;;;;;;;;5989261;29;20282;-73
2022/06/02 06:49:21;;;;;;;4.73;4.33;;;;;;;;;;5996972;29;23049;-76
2022/06/02 06:52:48;;;;;;;4.63;4.33;;;;;;;;;;6001251;29;20238;-73
2022/06/02 06:56:12;;;;;;;5.80;5.33;;;;;;;;;;5998210;29;20229;-71
2022/06/02 06:59:41;;;;;;;6.10;5.60;;;;;;;;;;6007006;29;20267;-71
2022/06/02 07:03:05;;;;;;;4.93;4.43;;;;;;;;;;6000724;29;20317;-75
2022/06/02 07:06:35;;;;;;;5.77;4.03;;;;;;;;;;6009396;29;20234;-77
2022/06/02 07:10:00;;;;;;;5.80;5.00;;;;;;;;;;6003594;29;20254;-76
2022/06/02 07:13:26;;;;;;;5.37;3.93;;;;;;;;;;6007102;29;20325;-77
2022/06/02 07:16:55;;;;;;;5.37;4.00;;;;;;;;;;5987924;29;21146;-71
2022/06/02 07:20:19;;;;;;;4.50;4.13;;;;;;;;;;6007957;29;20261;-72
2022/06/02 07:23:47;;;;;;;4.77;4.17;;;;;;;;;;5992125;29;20246;-72
2022/06/02 07:27:13;;;;;;;4.87;4.37;;;;;;;;;;5987015;29;20242;-71
2022/06/02 07:30:42;;;;;;;4.83;4.17;;;;;;;;;;5998132;29;20243;-74
2022/06/02 07:34:09;;;;;;;4.83;4.40;;;;;;;;;;5978800;29;20255;-72
2022/06/02 07:37:32;;;;;;;6.10;4.47;;;;;;;;;;5978626;29;20614;-74
2022/06/02 07:41:07;;;;;;;6.90;4.23;;;;;;;;;;5994521;29;20386;-75
2022/06/02 07:44:43;;;;;;;4.97;4.33;;;;;;;;;;5999342;29;20512;-75
2022/06/02 07:48:22;;;;;;;4.33;3.93;;;;;;;;;;5998056;29;20234;-73
2022/06/02 07:51:49;;;;;;;4.83;4.30;;;;;;;;;;6006383;29;20262;-74
2022/06/02 07:55:14;;;;;;;6.73;4.07;;;;;;;;;;5997215;29;20251;-73
2022/06/02 07:58:41;;;;;;;4.40;3.87;;;;;;;;;;5995401;29;20618;-74
2022/06/02 08:02:21;;;;;;;5.60;4.40;;;;;;;;;;6000423;29;20262;-73
2022/06/02 08:05:45;;;;;;;4.60;4.10;;;;;;;;;;6006610;29;20329;-73
2022/06/02 08:09:23;;;;;;;5.30;4.77;;;;;;;;;;6001958;29;20238;-71
2022/06/02 08:12:49;;;;;;;5.00;4.60;;;;;;;;;;6003592;29;20593;-73
2022/06/02 08:16:13;;;;;;;5.90;4.73;;;;;;;;;;6008690;29;20255;-73
2022/06/02 08:19:41;;;;;;;6.03;4.33;;;;;;;;;;6002622;29;20239;-72
2022/06/02 08:23:08;;;;;;;7.53;5.67;;;;;;;;;;5999749;29;20238;-73
2022/06/02 08:26:34;;;;;;;4.50;4.03;;;;;;;;;;6003403;29;20250;-75
2022/06/02 08:30:02;;;;;;;6.40;5.17;;;;;;;;;;6008179;29;20239;-73
2022/06/02 08:33:34;;;;;;;5.57;4.27;;;;;;;;;;6000973;29;20614;-79
2022/06/02 08:36:58;;;;;;;5.03;4.17;;;;;;;;;;6002589;29;20560;-78
2022/06/02 08:40:29;;;;;;;5.83;4.23;;;;;;;;;;5983754;29;21577;-74
2022/06/02 08:44:11;;;;;;;6.83;4.87;;;;;;;;;;5996433;29;20730;-74
2022/06/02 08:47:51;;;;;;;5.50;3.72;;;;;;;;;;5989903;29;20758;-72
2022/06/02 08:51:35;;;;;;;4.23;3.50;;;;;;;;;;6007516;29;20238;-71
2022/06/02 08:55:26;;;;;;;5.27;3.53;;;;;;;;;;6003913;29;20235;-69
2022/06/02 08:59:01;;;;;;;3.03;2.73;;;;;;;;;;6007923;29;20633;-71
2022/06/02 09:02:39;;;;;;;5.40;3.47;;;;;;;;;;6008281;29;20521;-71
2022/06/02 09:06:23;;;;;;;2.90;2.53;;;;;;;;;;6009265;29;20243;-70
2022/06/02 09:10:02;;;;;;;3.93;2.80;;;;;;;;;;5997912;29;20494;-70
2022/06/02 09:13:39;;;;;;;3.30;2.53;;;;;;;;;;6004387;29;20234;-71
2022/06/02 09:17:06;;;;;;;3.27;2.50;;;;;;;;;;5986862;29;20985;-72
2022/06/02 09:20:34;;;;;;;2.37;2.17;;;;;;;;;;5995065;29;20231;-85
2022/06/02 09:24:01;;;;;;;3.73;2.40;;;;;;;;;;6002405;29;20242;-76
2022/06/02 09:27:43;;;;;;;7.27;2.97;;;;;;;;;;6005297;29;20246;-76
2022/06/02 09:31:14;;;;;;;3.07;2.10;;;;;;;;;;6008452;29;20234;-75
2022/06/02 09:34:41;;;;;;;2.50;2.23;;;;;;;;;;6004686;29;20239;-75
2022/06/02 09:38:20;;;;;;;3.67;2.40;;;;;;;;;;6001493;29;20640;-72
2022/06/02 09:41:47;;;;;;;4.53;2.20;;;;;;;;;;6007551;29;20637;-73
2022/06/02 09:45:18;;;;;;;4.73;2.57;;;;;;;;;;6004814;29;20265;-71
2022/06/02 09:48:44;;;;;;;3.17;2.20;;;;;;;;;;6009659;29;20620;-74
2022/06/02 09:52:07;;;;;;;3.87;2.57;;;;;;;;;;6014195;29;20234;-73
2022/06/02 09:55:46;;;;;;;4.50;2.47;;;;;;;;;;6015999;29;20243;-73
2022/06/02 09:59:11;;;;;;;2.77;2.10;;;;;;;;;;6006285;29;20238;-73
2022/06/02 10:02:37;;;;;;;3.60;2.50;;;;;;;;;;6011296;29;20239;-73
2022/06/02 10:06:04;;;;;;;2.50;1.87;;;;;;;;;;6011726;29;20271;-73
2022/06/02 10:09:29;;;;;;;4.60;2.50;;;;;;;;;;6007037;29;20329;-73
2022/06/02 10:12:59;;;;;;;4.97;2.57;;;;;;;;;;6014071;29;20239;-72
2022/06/02 10:16:36;;;;;;;5.57;2.93;;;;;;;;;;6007132;29;20265;-72
2022/06/02 10:20:18;;;;;;;4.80;2.80;;;;;;;;;;6012362;29;20612;-73
2022/06/02 10:23:54;;;;;;;2.87;2.10;;;;;;;;;;6007918;29;20239;-70
2022/06/02 10:27:23;;;;;;;4.27;2.53;;;;;;;;;;6013078;29;20613;-74
2022/06/02 10:31:03;;;;;;;4.27;2.00;;;;;;;;;;6011304;29;20235;-73
2022/06/02 10:34:34;;;;;;;4.43;2.27;;;;;;;;;;6010724;29;20238;-75
2022/06/02 10:38:02;;;;;;;2.93;2.33;;;;;;;;;;6006137;29;20230;-75
2022/06/02 10:41:31;;;;;;;2.60;2.40;;;;;;;;;;6007288;29;20237;-72
2022/06/02 10:45:01;;;;;;;5.53;2.10;;;;;;;;;;6007015;29;20238;-74
2022/06/02 10:48:34;;;;;;;3.53;2.43;;;;;;;;;;6001468;29;20262;-72
2022/06/02 10:52:29;;;;;;;4.40;2.63;;;;;;;;;;6005870;29;20259;-74
2022/06/02 10:56:13;;;;;;;2.93;2.23;;;;;;;;;;6006790;29;20250;-72
2022/06/02 10:59:50;;;;;;;2.93;2.10;;;;;;;;;;6007331;29;20317;-71
2022/06/02 11:03:29;;;;;;;2.20;2.00;;;;;;;;;;6004095;29;20333;-72
2022/06/02 11:07:07;;;;;;;3.90;2.43;;;;;;;;;;6006474;29;20501;-73
2022/06/02 11:10:29;;;;;;;2.97;2.67;;;;;;;;;;6008432;29;20663;-73
2022/06/02 11:14:05;;;;;;;5.97;2.83;;;;;;;;;;6001517;29;20777;-71
2022/06/02 11:17:43;;;;;;;3.27;2.90;;;;;;;;;;6003932;29;20230;-72
2022/06/02 11:21:21;;;;;;;6.37;4.13;;;;;;;;;;6010617;29;20242;-72
2022/06/02 11:24:51;;;;;;;4.27;2.33;;;;;;;;;;6012848;29;20234;-71
2022/06/02 11:28:36;;;;;;;3.90;2.50;;;;;;;;;;6003820;29;20238;-72
2022/06/02 11:32:15;;;;;;;5.57;2.40;;;;;;;;;;6004551;29;20357;-71
2022/06/02 11:35:53;;;;;;;6.13;3.00;;;;;;;;;;6004314;29;20234;-71
2022/06/02 11:39:31;;;;;;;5.53;2.63;;;;;;;;;;5989921;29;20400;-73
2022/06/02 11:43:10;;;;;;;2.60;2.37;;;;;;;;;;6010358;29;20246;-72
2022/06/02 11:46:42;;;;;;;2.20;1.97;;;;;;;;;;6007716;29;20234;-72
2022/06/02 11:50:21;;;;;;;2.83;2.47;;;;;;;;;;6007158;29;20226;-71
2022/06/02 11:53:59;;;;;;;3.57;2.33;;;;;;;;;;6005439;29;20275;-72
2022/06/02 11:57:27;;;;;;;7.20;3.43;;;;;;;;;;6005196;29;20246;-72
2022/06/02 12:01:10;;;;;;;3.20;2.90;;;;;;;;;;5990102;29;20254;-71
2022/06/02 12:04:46;;;;;;;6.03;3.10;;;;;;;;;;5981712;29;22418;-73
2022/06/02 12:08:30;;;;;;;3.73;2.87;;;;;;;;;;5957120;29;21155;-76
2022/06/02 12:11:54;;;;;;;4.37;2.70;;;;;;;;;;6005330;29;21166;-72
2022/06/02 12:15:30;;;;;;;4.90;2.90;;;;;;;;;;5994030;29;20243;-74
2022/06/02 12:19:03;;;;;;;2.30;2.07;;;;;;;;;;6000201;29;21048;-74
2022/06/02 12:22:32;;;;;;;2.77;2.00;;;;;;;;;;6003120;29;20341;-74
2022/06/02 12:26:11;;;;;;;5.50;2.90;;;;;;;;;;6001294;29;20318;-71
2022/06/02 12:29:41;;;;;;;5.50;2.73;;;;;;;;;;6003718;29;20646;-71
2022/06/02 12:33:12;;;;;;;2.90;2.30;;;;;;;;;;6004352;29;20234;-71
2022/06/02 12:36:47;;;;;;;6.30;2.17;;;;;;;;;;6011541;29;20234;-73
2022/06/02 12:40:20;;;;;;;4.70;2.00;;;;;;;;;;6006902;29;20250;-75
2022/06/02 12:43:56;;;;;;;3.77;2.07;;;;;;;;;;6013229;29;20880;-74
2022/06/02 12:47:41;;;;;;;2.67;2.20;;;;;;;;;;5989972;29;20239;-73
2022/06/02 12:51:08;;;;;;;4.28;2.45;;;;;;;;;;6009055;29;20247;-73
2022/06/02 12:54:56;;;;;;;6.97;2.20;;;;;;;;;;6011309;29;20288;-76
2022/06/02 12:58:26;;;;;;;2.90;2.03;;;;;;;;;;6011692;29;20558;-67
2022/06/02 13:01:49;;;;;;;1.65;1.55;;;;;;;;;;6012123;29;20238;-68
2022/06/02 13:05:24;;;;;;;2.40;1.73;;;;;;;;;;6014336;29;20626;-68
2022/06/02 13:09:09;;;;;;;3.05;2.22;;;;;;;;;;6016453;29;20440;-67
2022/06/02 13:12:46;;;;;;;5.88;2.20;;;;;;;;;;5973220;29;20235;-67
2022/06/02 13:16:34;;;;;;;7.97;2.67;;;;;;;;;;6012174;29;20241;-68
2022/06/02 13:20:02;;;;;;;4.35;1.70;;;;;;;;;;6012553;29;20239;-69
2022/06/02 13:23:38;;;;;;;7.10;1.95;;;;;;;;;;6010751;29;20333;-68
2022/06/02 13:27:06;;;;;;;5.30;2.53;;;;;;;;;;6016181;29;20242;-68
2022/06/02 13:30:35;;;;;;;4.47;2.35;;;;;;;;;;6009447;29;20237;-69
2022/06/02 13:34:15;;;;;;;3.85;2.03;;;;;;;;;;6005176;29;20278;-69
2022/06/02 13:37:53;;;;;;;2.92;1.65;;;;;;;;;;6006168;29;20239;-69
2022/06/02 13:41:41;;;;;;;3.03;1.90;;;;;;;;;;5994879;29;20235;-68
2022/06/02 13:45:18;;;;;;;4.78;2.10;;;;;;;;;;5989352;29;20596;-70
2022/06/02 13:48:50;;;;;;;3.55;1.48;;;;;;;;;;6010312;29;20242;-67
2022/06/02 13:52:38;;;;;;;2.60;1.60;;;;;;;;;;6008961;29;20258;-67
2022/06/02 14:00:01;;;;;;;6.22;2.05;;;;;;;;;;6001445;29;20295;-67
2022/06/02 14:03:48;;;;;;;1.88;1.42;;;;;;;;;;6006839;29;20625;-66
2022/06/02 14:07:20;;;;;;;4.05;1.77;;;;;;;;;;5965963;29;20620;-67
2022/06/02 14:10:46;;;;;;;5.05;1.67;;;;;;;;;;6009186;29;20254;-67
2022/06/02 14:14:17;;;;;;;2.58;1.45;;;;;;;;;;6004561;29;20234;-67
2022/06/02 14:17:57;;;;;;;3.53;2.08;;;;;;;;;;6001363;29;21054;-68
2022/06/02 14:21:25;;;;;;;4.72;2.00;;;;;;;;;;6012610;29;20282;-68
2022/06/02 14:24:51;;;;;;;2.05;1.75;;;;;;;;;;6001323;29;20245;-68
2022/06/02 14:28:21;;;;;;;3.03;1.42;;;;;;;;;;5998591;29;20765;-70
2022/06/02 14:31:51;;;;;;;4.22;1.63;;;;;;;;;;6011957;29;20238;-70
2022/06/02 14:35:33;;;;;;;3.90;1.65;;;;;;;;;;6016646;29;20329;-70
2022/06/02 14:39:03;;;;;;;1.75;1.52;;;;;;;;;;6014779;29;20258;-69
2022/06/02 14:46:30;;;;;;;3.13;1.50;;;;;;;;;;6014147;29;20609;-71
2022/06/02 14:49:58;;;;;;;3.55;1.90;;;;;;;;;;6010565;29;20238;-70
2022/06/02 14:53:29;;;;;;;2.35;1.50;;;;;;;;;;6014924;29;20238;-70
2022/06/02 14:56:56;;;;;;;2.53;1.48;;;;;;;;;;6012253;29;20507;-72
2022/06/02 15:00:19;;;;;;;3.17;1.58;;;;;;;;;;6006523;29;20760;-68
2022/06/02 15:03:54;;;;;;;2.17;1.38;;;;;;;;;;6013870;29;20235;-69
2022/06/02 15:07:45;;;;;;;2.88;1.45;;;;;;;;;;5996516;29;20230;-70
2022/06/02 15:11:10;;;;;;;1.77;1.50;;;;;;;;;;6016285;29;20254;-70
2022/06/02 15:14:38;;;;;;;4.75;1.95;;;;;;;;;;6013425;29;20747;-70
2022/06/02 15:18:07;;;;;;;3.05;1.48;;;;;;;;;;6006403;29;20226;-71
2022/06/02 15:21:30;;;;;;;3.92;1.50;;;;;;;;;;6007347;29;20242;-71
2022/06/02 15:24:56;;;;;;;2.55;1.60;;;;;;;;;;6004015;29;20239;-70
2022/06/02 15:28:22;;;;;;;2.97;2.00;;;;;;;;;;6012355;29;20585;-72
2022/06/02 15:31:50;;;;;;;2.53;1.38;;;;;;;;;;6000665;29;20243;-70
2022/06/02 15:35:20;;;;;;;4.18;2.45;;;;;;;;;;6007103;29;20320;-69
2022/06/02 15:38:55;;;;;;;4.47;2.22;;;;;;;;;;6010946;29;20242;-71
2022/06/02 15:42:30;;;;;;;2.03;1.40;;;;;;;;;;6012945;29;20251;-71
2022/06/02 15:46:09;;;;;;;2.95;2.22;;;;;;;;;;6014135;29;20321;-70
2022/06/02 15:49:40;;;;;;;5.30;1.50;;;;;;;;;;6009775;29;20234;-70
2022/06/02 15:53:15;;;;;;;3.38;1.42;;;;;;;;;;6012419;29;20246;-71
2022/06/02 15:56:55;;;;;;;2.15;1.65;;;;;;;;;;6010159;29;20238;-70
2022/06/02 16:00:27;;;;;;;4.15;1.48;;;;;;;;;;6005126;29;20243;-71
2022/06/02 16:04:04;;;;;;;1.25;1.05;;;;;;;;;;6007366;29;20326;-71
2022/06/02 16:07:46;;;;;;;3.08;1.63;;;;;;;;;;6002575;29;20234;-71
2022/06/02 16:11:15;;;;;;;2.80;1.48;;;;;;;;;;5985938;29;20239;-70
2022/06/02 16:14:56;;;;;;;3.65;1.50;;;;;;;;;;5992960;29;20257;-70
2022/06/02 16:18:31;;;;;;;1.88;1.45;;;;;;;;;;5973271;29;20587;-75
2022/06/02 16:22:06;;;;;;;1.73;1.23;;;;;;;;;;6003758;29;20321;-76
2022/06/02 16:25:45;;;;;;;2.05;1.13;;;;;;;;;;6005566;29;20226;-76
2022/06/02 16:29:24;;;;;;;2.75;1.50;;;;;;;;;;6002432;29;20230;-76
2022/06/02 16:32:59;;;;;;;3.10;1.13;;;;;;;;;;6009230;29;20243;-77
2022/06/02 16:36:40;;;;;;;2.85;1.33;;;;;;;;;;6009436;29;20241;-77
2022/06/02 16:40:10;;;;;;;2.30;1.27;;;;;;;;;;6000591;29;20270;-75
2022/06/02 16:43:38;;;;;;;4.57;1.40;;;;;;;;;;5998020;29;20238;-73
2022/06/02 16:47:07;;;;;;;4.22;1.52;;;;;;;;;;6002892;29;20551;-74
2022/06/02 16:50:41;;;;;;;2.95;1.35;;;;;;;;;;6002575;29;20610;-74
2022/06/02 16:54:22;;;;;;;3.95;1.60;;;;;;;;;;5999087;29;20573;-74
2022/06/02 16:57:57;;;;;;;2.72;1.58;;;;;;;;;;6009870;29;20590;-74
2022/06/02 17:01:26;;;;;;;3.65;1.60;;;;;;;;;;6011651;29;20226;-75
2022/06/02 17:04:58;;;;;;;3.17;1.70;;;;;;;;;;6020212;29;20230;-73
2022/06/02 17:08:33;;;;;;;2.03;1.73;;;;;;;;;;6002463;29;20238;-76
2022/06/02 17:12:00;;;;;;;3.80;2.03;;;;;;;;;;6009903;29;20232;-75
2022/06/02 17:15:52;;;;;;;4.22;2.05;;;;;;;;;;6002146;29;20643;-74
2022/06/02 17:19:24;;;;;;;5.15;2.88;;;;;;;;;;6005762;29;20254;-75
2022/06/02 17:22:52;;;;;;;4.82;1.80;;;;;;;;;;6013772;29;20245;-73
2022/06/02 17:26:42;;;;;;;2.53;1.55;;;;;;;;;;6028130;29;20565;-75
2022/06/02 17:30:10;;;;;;;3.92;2.35;;;;;;;;;;6018417;29;20238;-75
2022/06/02 17:33:39;;;;;;;4.00;2.55;;;;;;;;;;6013998;29;20247;-74
2022/06/02 17:37:10;;;;;;;4.43;2.28;;;;;;;;;;6014855;29;20238;-76
2022/06/02 17:40:35;;;;;;;4.50;1.85;;;;;;;;;;6014510;29;20242;-75
2022/06/02 17:44:07;;;;;;;7.38;2.45;;;;;;;;;;6015690;29;21008;-73
2022/06/02 17:47:41;;;;;;;5.70;2.13;;;;;;;;;;6011288;29;20246;-74
2022/06/02 17:51:36;;;;;;;4.75;2.22;;;;;;;;;;6023072;29;20277;-74
2022/06/02 17:55:08;;;;;;;3.58;2.15;;;;;;;;;;6016190;29;20258;-75
2022/06/02 17:58:36;;;;;;;5.15;2.22;;;;;;;;;;6017810;29;20234;-75
2022/06/02 18:02:14;;;;;;;3.50;1.98;;;;;;;;;;6021469;29;20234;-74
2022/06/02 18:05:53;;;;;;;7.63;1.75;;;;;;;;;;6019489;29;20239;-76
2022/06/02 18:09:24;;;;;;;7.55;2.30;;;;;;;;;;6016244;29;20226;-75
2022/06/02 18:12:58;;;;;;;5.50;2.90;;;;;;;;;;6020809;29;20245;-75
2022/06/02 18:16:33;;;;;;;3.22;2.08;;;;;;;;;;6015495;29;20234;-75
2022/06/02 18:19:56;;;;;;;3.88;2.90;;;;;;;;;;6018535;29;20224;-73
2022/06/02 18:23:35;;;;;;;3.63;2.08;;;;;;;;;;6019232;29;20234;-75
2022/06/02 18:27:05;;;;;;;3.37;1.87;;;;;;;;;;6011895;29;20238;-76
2022/06/02 18:30:32;;;;;;;2.72;1.63;;;;;;;;;;6016916;29;20258;-76
2022/06/02 18:34:18;;;;;;;6.13;2.42;;;;;;;;;;6016215;29;20381;-75
2022/06/02 18:37:58;;;;;;;6.35;2.45;;;;;;;;;;6015596;29;20227;-75
2022/06/02 18:41:42;;;;;;;3.92;2.17;;;;;;;;;;6019552;29;20313;-75
2022/06/02 18:45:32;;;;;;;5.10;2.15;;;;;;;;;;5960079;29;20243;-75
2022/06/02 18:49:07;;;;;;;6.55;2.60;;;;;;;;;;6003362;29;20234;-75
2022/06/02 18:52:46;;;;;;;4.95;2.10;;;;;;;;;;6022479;29;20246;-76
2022/06/02 18:56:19;;;;;;;4.65;2.08;;;;;;;;;;5996773;29;20235;-74
2022/06/02 18:59:58;;;;;;;4.55;2.05;;;;;;;;;;6014995;29;20600;-75
2022/06/02 19:03:32;;;;;;;4.60;2.53;;;;;;;;;;6011589;29;20239;-75
2022/06/02 19:14:40;;;;;;;5.22;2.20;;;;;;;;;;6008473;29;20578;-75
2022/06/02 19:18:07;;;;;;;4.07;2.80;;;;;;;;;;5992126;29;20235;-74
2022/06/02 19:21:36;;;;;;;6.60;2.87;;;;;;;;;;6001682;29;20671;-75
2022/06/02 19:25:11;;;;;;;4.28;2.35;;;;;;;;;;6016850;29;20238;-75
2022/06/02 19:28:50;;;;;;;5.60;3.00;;;;;;;;;;6014967;29;20613;-75
2022/06/02 19:32:28;;;;;;;4.77;3.70;;;;;;;;;;6001152;29;20247;-74
2022/06/02 19:36:09;;;;;;;4.70;2.43;;;;;;;;;;6014556;29;20223;-74
2022/06/02 19:39:35;;;;;;;5.13;2.90;;;;;;;;;;6012800;29;20239;-76
2022/06/02 19:43:00;;;;;;;6.37;2.50;;;;;;;;;;6011907;29;20531;-75
2022/06/02 19:46:24;;;;;;;5.23;2.90;;;;;;;;;;6016140;29;20269;-75
2022/06/02 19:49:51;;;;;;;5.30;2.13;;;;;;;;;;6010333;29;20231;-73
2022/06/02 19:53:16;;;;;;;6.80;3.07;;;;;;;;;;6019553;29;20521;-74
2022/06/02 19:56:43;;;;;;;8.00;3.47;;;;;;;;;;6012695;29;20239;-75
2022/06/02 20:00:13;;;;;;;7.27;2.53;;;;;;;;;;6013738;29;20570;-73
2022/06/02 20:03:38;;;;;;;6.30;3.50;;;;;;;;;;6012903;29;20250;-74
2022/06/02 20:07:06;;;;;;;6.50;3.20;;;;;;;;;;6013999;29;20239;-71
2022/06/02 20:10:28;;;;;;;5.00;3.80;;;;;;;;;;6012994;29;20365;-73
2022/06/02 20:13:52;;;;;;;7.20;2.60;;;;;;;;;;6020449;29;20306;-73
2022/06/02 20:17:15;;;;;;;6.53;4.00;;;;;;;;;;6014028;29;20238;-73
2022/06/02 20:20:38;;;;;;;3.87;2.10;;;;;;;;;;5990801;29;20258;-74
2022/06/02 20:24:05;;;;;;;5.43;3.17;;;;;;;;;;5995379;29;20516;-72
2022/06/02 20:27:29;;;;;;;4.57;3.40;;;;;;;;;;5996114;29;20245;-70
2022/06/02 20:30:52;;;;;;;5.63;3.93;;;;;;;;;;6002004;29;20337;-72
2022/06/02 20:34:19;;;;;;;5.13;3.40;;;;;;;;;;5996103;29;20238;-68
2022/06/02 20:37:58;;;;;;;5.47;3.63;;;;;;;;;;6002503;29;20538;-68
2022/06/02 20:41:39;;;;;;;9.00;3.40;;;;;;;;;;5977517;29;20258;-69
2022/06/02 20:45:02;;;;;;;9.73;4.00;;;;;;;;;;6003653;29;20641;-68
2022/06/02 20:48:30;;;;;;;9.37;3.40;;;;;;;;;;5992345;29;20234;-70
2022/06/02 20:51:53;;;;;;;8.17;4.20;;;;;;;;;;5981732;29;20686;-69
2022/06/02 20:55:14;;;;;;;5.77;3.10;;;;;;;;;;5994655;29;20238;-69
2022/06/02 20:58:37;;;;;;;7.03;3.23;;;;;;;;;;6001453;29;20309;-68
2022/06/02 21:02:00;;;;;;;3.83;2.53;;;;;;;;;;5991164;29;20528;-68
2022/06/02 21:05:25;;;;;;;8.40;3.23;;;;;;;;;;5982438;29;20494;-72
2022/06/02 21:08:49;;;;;;;5.47;3.57;;;;;;;;;;6006025;29;20244;-72
2022/06/02 21:12:14;;;;;;;9.47;4.17;;;;;;;;;;6000507;29;20353;-72
2022/06/02 21:15:48;;;;;;;6.63;3.47;;;;;;;;;;6009813;29;20250;-72
2022/06/02 21:19:11;;;;;;;8.50;3.87;;;;;;;;;;6002782;29;20246;-72
2022/06/02 21:22:37;;;;;;;3.93;3.10;;;;;;;;;;6002849;29;20609;-72